Portada
Imágenes satélite Pronóstico 15 díasClimaPredicción Marítima Ciclones Rayo AeropuertosFAQ Noticias Acerca
El tiempo : Europa África América del Norte América del Sur Asia Australia-Oceanía Otros
Idiomas Contacto

Vitória, Espírito Santo, Brasil

latitud: 20-16S, longitud: 040-17W, altitud: 4 m


METAR: SBVT 241400Z 06007KT 9999 FEW026 SCT035 26/23 Q1016
TAF: SBVT 241000Z 2412/2512 08012KT 9999 SCT030 TX25/2415Z TN19/2502Z BECMG 2423/2501 31005KT RMK PDG

Hora: 12:35 (14:35 UTC)

Observación

El informe se hizo hace 35 minutos, a las 14:00 UTC
Viento 7 kt del este-noreste
Temperatura 26°C
Humedad 84%
Presión 1016 hPa
Visibilidad 10 km o más
Escasas nubes a una altura de 2600 ft
Nubes dispersas a una altura de 3500 ft

Cambiar las unidades

Pronóstico

El informe se hizo hace 4 horas y 35 minutos, a las 10:00 UTC
Pronóstico válido del 24 a las 12 UTC al 25 a las 12 UTC
Viento 12 kt del este
Visibilidad 10 km o más
Nubes dispersas a una altura de 3000 ft
Evolucionando progresivamente
del 24 a las 23 UTC al 25 a las 01 UTC
Viento 5 kt del noroeste
La información que se ofrece en estas páginas está sujeta a una cláusula de exención de responsabilidad
El tiempo : Europa África América del Norte América del Sur Asia Australia-Oceanía Otros
Imágenes satélite Pronóstico 15 díasClimaPredicción Marítima Ciclones Rayo AeropuertosFAQ Idiomas Contacto Noticias Acerca